Time;durP1;ratioP1;P1;durP2;ratioP2;P2;SDS_P1;SDS_P2;PMS_P1;PMS_P2;Temp;Humidity;BMP_temperature;BMP_pressure;BME280_temperature;BME280_humidity;BME280_pressure;Samples;Min_cycle;Max_cycle;Signal;HPM_P1;HPM_P2
2023/12/18 00:01:13;;;;;;;3.90;3.20;;;;;;;;;;2611633;54;20399;-76
2023/12/18 00:03:39;;;;;;;4.97;3.73;;;;;;;;;;2612114;54;20416;-76
2023/12/18 00:06:07;;;;;;;6.10;4.83;;;;;;;;;;2609998;54;20396;-77
2023/12/18 00:08:33;;;;;;;6.40;4.93;;;;;;;;;;2613341;31;21069;-76
2023/12/18 00:10:59;;;;;;;7.03;4.17;;;;;;;;;;2610872;54;20387;-75
2023/12/18 00:13:25;;;;;;;5.57;4.60;;;;;;;;;;2609689;54;20531;-75
2023/12/18 00:15:51;;;;;;;5.63;4.60;;;;;;;;;;2610510;39;20772;-76
2023/12/18 00:18:17;;;;;;;6.53;4.43;;;;;;;;;;2610162;54;21095;-77
2023/12/18 00:20:43;;;;;;;12.37;4.33;;;;;;;;;;2611786;39;20793;-77
2023/12/18 00:23:09;;;;;;;7.23;5.40;;;;;;;;;;2610564;54;20466;-77
2023/12/18 00:25:35;;;;;;;4.10;3.70;;;;;;;;;;2611954;54;20408;-76
2023/12/18 00:28:01;;;;;;;5.30;4.30;;;;;;;;;;2611084;47;20483;-75
2023/12/18 00:30:27;;;;;;;6.87;4.00;;;;;;;;;;2610609;54;20991;-77
2023/12/18 00:32:53;;;;;;;6.20;4.83;;;;;;;;;;2610643;54;20420;-77
2023/12/18 00:35:19;;;;;;;6.70;5.87;;;;;;;;;;2609952;54;20511;-76
2023/12/18 00:37:45;;;;;;;12.47;4.60;;;;;;;;;;2612053;54;20551;-73
2023/12/18 00:40:11;;;;;;;6.07;4.93;;;;;;;;;;2610514;54;21050;-73
2023/12/18 00:42:37;;;;;;;4.80;4.30;;;;;;;;;;2608876;54;20421;-73
2023/12/18 00:45:03;;;;;;;5.97;4.73;;;;;;;;;;2611276;54;21004;-73
2023/12/18 00:47:29;;;;;;;5.30;4.40;;;;;;;;;;2609691;54;20449;-73
2023/12/18 00:49:55;;;;;;;4.83;3.43;;;;;;;;;;2610502;39;20816;-73
2023/12/18 00:52:21;;;;;;;17.97;5.90;;;;;;;;;;2610524;54;20426;-73
2023/12/18 00:54:47;;;;;;;4.50;3.40;;;;;;;;;;2611798;54;20450;-73
2023/12/18 00:57:13;;;;;;;10.10;5.23;;;;;;;;;;2610880;54;20470;-73
2023/12/18 00:59:39;;;;;;;8.43;5.47;;;;;;;;;;2611225;54;20415;-73
2023/12/18 01:02:05;;;;;;;5.87;5.27;;;;;;;;;;2610933;54;20426;-73
2023/12/18 01:04:32;;;;;;;7.13;6.50;;;;;;;;;;2610045;54;20770;-74
2023/12/18 01:06:58;;;;;;;6.97;4.33;;;;;;;;;;2611703;54;20423;-73
2023/12/18 01:09:24;;;;;;;7.23;5.60;;;;;;;;;;2611351;54;20441;-74
2023/12/18 01:11:50;;;;;;;11.10;6.00;;;;;;;;;;2608962;54;21029;-73
2023/12/18 01:14:16;;;;;;;6.00;5.17;;;;;;;;;;2611594;54;21028;-72
2023/12/18 01:16:42;;;;;;;9.70;5.30;;;;;;;;;;2611573;54;20439;-74
2023/12/18 01:19:08;;;;;;;6.53;5.00;;;;;;;;;;2610533;54;20552;-72
2023/12/18 01:21:35;;;;;;;7.90;6.13;;;;;;;;;;2610479;54;21528;-74
2023/12/18 01:24:01;;;;;;;10.70;6.50;;;;;;;;;;2610543;54;20418;-73
2023/12/18 01:26:27;;;;;;;8.93;5.70;;;;;;;;;;2609775;54;20426;-73
2023/12/18 01:28:53;;;;;;;6.93;5.17;;;;;;;;;;2611307;54;20987;-73
2023/12/18 01:31:23;;;;;;;8.57;5.33;;;;;;;;;;2609465;54;20440;-73
2023/12/18 01:33:49;;;;;;;7.27;6.07;;;;;;;;;;2610097;54;20454;-74
2023/12/18 01:36:16;;;;;;;6.17;4.90;;;;;;;;;;2610618;39;20834;-72
2023/12/18 01:38:42;;;;;;;10.20;5.57;;;;;;;;;;2611757;47;20888;-73
2023/12/18 01:41:08;;;;;;;10.53;6.57;;;;;;;;;;2611176;54;20469;-75
2023/12/18 01:43:34;;;;;;;8.50;6.07;;;;;;;;;;2609642;54;20433;-74
2023/12/18 01:46:00;;;;;;;7.60;5.53;;;;;;;;;;2611193;47;20431;-72
2023/12/18 01:48:27;;;;;;;6.77;6.17;;;;;;;;;;2611349;47;20463;-75
2023/12/18 01:50:54;;;;;;;7.57;5.60;;;;;;;;;;2612100;39;21313;-75
2023/12/18 01:53:22;;;;;;;10.73;6.70;;;;;;;;;;2610276;54;21020;-75
2023/12/18 01:55:48;;;;;;;5.30;4.53;;;;;;;;;;2610641;47;20408;-76
2023/12/18 01:58:14;;;;;;;13.57;5.47;;;;;;;;;;2610100;47;22565;-76
2023/12/18 02:00:40;;;;;;;10.13;5.90;;;;;;;;;;2611865;54;20423;-75
2023/12/18 02:03:08;;;;;;;8.80;6.00;;;;;;;;;;2609793;54;20427;-74
2023/12/18 02:05:34;;;;;;;7.50;5.20;;;;;;;;;;2610781;47;20421;-76
2023/12/18 02:08:00;;;;;;;10.03;6.40;;;;;;;;;;2612344;54;20427;-75
2023/12/18 02:10:27;;;;;;;13.80;6.00;;;;;;;;;;2611717;54;20423;-75
2023/12/18 02:12:53;;;;;;;10.73;6.13;;;;;;;;;;2611295;39;20997;-75
2023/12/18 02:15:19;;;;;;;7.30;5.70;;;;;;;;;;2609232;54;20429;-76
2023/12/18 02:17:45;;;;;;;8.10;5.80;;;;;;;;;;2611584;54;20456;-80
2023/12/18 02:20:11;;;;;;;7.07;5.97;;;;;;;;;;2611865;54;21100;-80
2023/12/18 02:22:49;;;;;;;10.43;6.23;;;;;;;;;;2611567;54;21108;-81
2023/12/18 02:25:18;;;;;;;13.63;6.83;;;;;;;;;;2610224;54;20735;-80
2023/12/18 02:27:45;;;;;;;9.63;4.87;;;;;;;;;;2612553;54;20422;-81
2023/12/18 02:30:15;;;;;;;10.50;7.03;;;;;;;;;;2612913;54;20940;-81
2023/12/18 02:32:41;;;;;;;7.43;5.53;;;;;;;;;;2610385;54;20526;-79
2023/12/18 02:35:07;;;;;;;12.80;7.20;;;;;;;;;;2612224;54;20468;-80
2023/12/18 02:37:33;;;;;;;12.03;6.73;;;;;;;;;;2613067;54;20419;-81
2023/12/18 02:39:59;;;;;;;14.90;7.50;;;;;;;;;;2613038;39;20723;-80
2023/12/18 02:42:25;;;;;;;12.00;7.53;;;;;;;;;;2611277;47;20434;-80
2023/12/18 02:44:51;;;;;;;9.80;6.60;;;;;;;;;;2611186;39;20912;-79
2023/12/18 02:47:17;;;;;;;9.07;8.07;;;;;;;;;;2612119;54;20533;-79
2023/12/18 02:49:43;;;;;;;13.60;7.90;;;;;;;;;;2612831;54;20516;-79
2023/12/18 02:52:10;;;;;;;11.57;7.30;;;;;;;;;;2612226;54;20475;-80
2023/12/18 02:54:37;;;;;;;12.83;8.20;;;;;;;;;;2611453;54;20976;-80
2023/12/18 02:57:03;;;;;;;10.70;7.50;;;;;;;;;;2611325;53;20435;-71
2023/12/18 02:59:29;;;;;;;12.20;8.17;;;;;;;;;;2609790;54;20403;-72
2023/12/18 03:01:55;;;;;;;9.90;5.60;;;;;;;;;;2612036;31;21090;-71
2023/12/18 03:04:21;;;;;;;13.50;9.20;;;;;;;;;;2611271;54;20436;-72
2023/12/18 03:06:47;;;;;;;12.23;8.27;;;;;;;;;;2610953;54;20413;-72
2023/12/18 03:09:13;;;;;;;17.27;9.63;;;;;;;;;;2611871;54;20427;-72
2023/12/18 03:11:40;;;;;;;11.60;8.23;;;;;;;;;;2610692;39;20809;-71
2023/12/18 03:14:06;;;;;;;12.67;8.53;;;;;;;;;;2609091;47;20427;-71
2023/12/18 03:16:32;;;;;;;17.83;8.73;;;;;;;;;;2611748;54;20431;-71
2023/12/18 03:18:58;;;;;;;14.50;9.90;;;;;;;;;;2611059;54;20489;-72
2023/12/18 03:21:24;;;;;;;18.90;10.83;;;;;;;;;;2611245;47;20439;-71
2023/12/18 03:23:50;;;;;;;22.43;9.67;;;;;;;;;;2610661;54;20478;-72
2023/12/18 03:26:16;;;;;;;13.17;10.13;;;;;;;;;;2611109;54;20413;-72
2023/12/18 03:28:43;;;;;;;20.30;10.37;;;;;;;;;;2609578;54;20447;-72
2023/12/18 03:31:10;;;;;;;9.70;8.17;;;;;;;;;;2612098;54;20961;-71
2023/12/18 03:33:36;;;;;;;12.93;9.47;;;;;;;;;;2610477;47;20494;-72
2023/12/18 03:36:03;;;;;;;17.47;7.77;;;;;;;;;;2612108;54;20406;-72
2023/12/18 03:38:29;;;;;;;11.83;9.50;;;;;;;;;;2611862;54;20503;-72
2023/12/18 03:40:55;;;;;;;22.20;11.00;;;;;;;;;;2612232;54;20984;-72
2023/12/18 03:43:22;;;;;;;19.67;10.17;;;;;;;;;;2610655;54;20522;-72
2023/12/18 03:45:49;;;;;;;16.50;9.20;;;;;;;;;;2611774;54;20534;-71
2023/12/18 03:48:15;;;;;;;14.87;9.97;;;;;;;;;;2610573;54;20392;-71
2023/12/18 03:50:42;;;;;;;13.17;7.77;;;;;;;;;;2611119;54;20417;-71
2023/12/18 03:53:08;;;;;;;20.70;10.73;;;;;;;;;;2610083;54;20440;-72
2023/12/18 03:55:35;;;;;;;18.50;10.63;;;;;;;;;;2611889;54;20395;-71
2023/12/18 03:58:01;;;;;;;26.13;11.57;;;;;;;;;;2610662;54;20416;-71
2023/12/18 04:00:27;;;;;;;17.67;10.20;;;;;;;;;;2612250;54;20450;-72
2023/12/18 04:02:53;;;;;;;13.60;8.83;;;;;;;;;;2609428;54;20451;-72
2023/12/18 04:05:19;;;;;;;10.23;7.57;;;;;;;;;;2612129;54;20411;-71
2023/12/18 04:07:45;;;;;;;16.10;10.20;;;;;;;;;;2609977;47;20454;-71
2023/12/18 04:10:11;;;;;;;13.07;7.47;;;;;;;;;;2612482;54;21025;-72
2023/12/18 04:12:38;;;;;;;19.40;14.40;;;;;;;;;;2610085;39;20909;-71
2023/12/18 04:15:04;;;;;;;14.93;8.60;;;;;;;;;;2609274;54;20902;-71
2023/12/18 04:17:31;;;;;;;14.30;9.07;;;;;;;;;;2609912;54;20457;-72
2023/12/18 04:19:57;;;;;;;16.03;11.40;;;;;;;;;;2611315;54;21337;-72
2023/12/18 04:22:23;;;;;;;16.33;10.37;;;;;;;;;;2611733;54;20433;-72
2023/12/18 04:24:49;;;;;;;15.33;11.13;;;;;;;;;;2609960;54;20419;-73
2023/12/18 04:27:15;;;;;;;24.07;12.17;;;;;;;;;;2610252;47;20428;-72
2023/12/18 04:29:41;;;;;;;19.80;11.10;;;;;;;;;;2611259;54;20538;-72
2023/12/18 04:32:07;;;;;;;19.13;13.30;;;;;;;;;;2609632;54;21086;-71
2023/12/18 04:34:34;;;;;;;16.00;10.47;;;;;;;;;;2611489;54;20423;-71
2023/12/18 04:37:00;;;;;;;13.97;9.07;;;;;;;;;;2611656;54;20415;-71
2023/12/18 04:39:26;;;;;;;13.87;7.73;;;;;;;;;;2610773;47;20426;-71
2023/12/18 04:41:52;;;;;;;15.67;10.20;;;;;;;;;;2611495;54;20952;-71
2023/12/18 04:44:18;;;;;;;19.13;10.63;;;;;;;;;;2610950;54;20420;-72
2023/12/18 04:46:44;;;;;;;25.27;11.07;;;;;;;;;;2608995;54;20424;-72
2023/12/18 04:49:10;;;;;;;15.40;9.97;;;;;;;;;;2611430;39;20830;-70
2023/12/18 04:51:36;;;;;;;22.23;12.07;;;;;;;;;;2610474;47;20430;-73
2023/12/18 04:54:02;;;;;;;19.70;10.90;;;;;;;;;;2610542;54;20424;-73
2023/12/18 04:56:28;;;;;;;24.73;11.03;;;;;;;;;;2609949;47;20437;-73
2023/12/18 04:58:54;;;;;;;29.83;15.40;;;;;;;;;;2610050;54;20435;-72
2023/12/18 05:01:20;;;;;;;21.03;13.23;;;;;;;;;;2608983;54;21119;-71
2023/12/18 05:03:46;;;;;;;16.90;10.93;;;;;;;;;;2608751;47;20439;-72
2023/12/18 05:06:19;;;;;;;20.07;13.20;;;;;;;;;;2610234;54;20441;-71
2023/12/18 05:08:45;;;;;;;18.93;11.70;;;;;;;;;;2610797;54;20423;-72
2023/12/18 05:11:11;;;;;;;24.10;13.97;;;;;;;;;;2611226;54;20434;-72
2023/12/18 05:13:37;;;;;;;18.60;12.27;;;;;;;;;;2610199;54;20427;-72
2023/12/18 05:16:03;;;;;;;15.83;9.63;;;;;;;;;;2610339;49;20460;-71
2023/12/18 05:18:29;;;;;;;20.33;12.17;;;;;;;;;;2608572;46;20471;-73
2023/12/18 05:20:57;;;;;;;14.40;10.17;;;;;;;;;;2611073;39;21184;-72
2023/12/18 05:23:24;;;;;;;25.37;14.13;;;;;;;;;;2611058;54;20438;-73
2023/12/18 05:25:50;;;;;;;22.43;12.23;;;;;;;;;;2610471;39;20730;-72
2023/12/18 05:28:16;;;;;;;18.07;9.83;;;;;;;;;;2611131;47;20428;-73
2023/12/18 05:30:42;;;;;;;14.53;9.20;;;;;;;;;;2610285;54;20419;-72
2023/12/18 05:33:08;;;;;;;28.70;15.60;;;;;;;;;;2609123;39;21164;-73
2023/12/18 05:35:34;;;;;;;18.30;9.87;;;;;;;;;;2611063;54;20461;-73
2023/12/18 05:38:00;;;;;;;9.37;5.40;;;;;;;;;;2611160;54;20550;-73
2023/12/18 05:40:27;;;;;;;19.23;12.80;;;;;;;;;;2610757;54;20411;-73
2023/12/18 05:42:54;;;;;;;20.60;9.30;;;;;;;;;;2609884;54;20431;-74
2023/12/18 05:45:20;;;;;;;16.43;10.80;;;;;;;;;;2611272;47;20538;-73
2023/12/18 05:47:46;;;;;;;19.60;11.93;;;;;;;;;;2609279;54;20419;-77
2023/12/18 05:50:12;;;;;;;19.33;10.77;;;;;;;;;;2611221;39;20745;-77
2023/12/18 05:52:38;;;;;;;23.40;13.73;;;;;;;;;;2611135;39;20845;-76
2023/12/18 05:55:05;;;;;;;23.23;14.50;;;;;;;;;;2610611;54;20474;-75
2023/12/18 05:57:31;;;;;;;16.80;7.40;;;;;;;;;;2610568;54;20936;-76
2023/12/18 05:59:57;;;;;;;20.97;13.57;;;;;;;;;;2611395;39;21166;-76
2023/12/18 06:02:23;;;;;;;22.53;11.00;;;;;;;;;;2609547;54;20407;-76
2023/12/18 06:04:50;;;;;;;14.07;9.37;;;;;;;;;;2609656;47;20477;-76
2023/12/18 06:07:16;;;;;;;18.23;11.90;;;;;;;;;;2610043;46;20472;-76
2023/12/18 06:09:42;;;;;;;21.83;12.50;;;;;;;;;;2608797;39;20826;-76
2023/12/18 06:12:08;;;;;;;23.43;15.90;;;;;;;;;;2610583;47;20435;-76
2023/12/18 06:14:34;;;;;;;15.00;8.53;;;;;;;;;;2612015;54;20419;-76
2023/12/18 06:17:00;;;;;;;19.60;12.27;;;;;;;;;;2609674;54;21841;-75
2023/12/18 06:19:26;;;;;;;23.13;14.47;;;;;;;;;;2612574;54;20461;-75
2023/12/18 06:21:52;;;;;;;22.50;13.63;;;;;;;;;;2607364;54;20415;-76
2023/12/18 06:24:18;;;;;;;25.73;12.87;;;;;;;;;;2610417;51;20434;-76
2023/12/18 06:26:44;;;;;;;28.67;15.10;;;;;;;;;;2609867;54;20422;-71
2023/12/18 06:29:10;;;;;;;14.33;11.40;;;;;;;;;;2610121;39;20908;-71
2023/12/18 06:31:36;;;;;;;16.90;11.97;;;;;;;;;;2610543;54;20427;-72
2023/12/18 06:34:03;;;;;;;20.70;11.17;;;;;;;;;;2610627;47;20439;-72
2023/12/18 06:36:29;;;;;;;17.60;10.10;;;;;;;;;;2611305;51;20823;-70
2023/12/18 06:38:55;;;;;;;23.77;13.43;;;;;;;;;;2612224;54;20442;-71
2023/12/18 06:41:21;;;;;;;23.23;11.57;;;;;;;;;;2610927;54;20423;-70
2023/12/18 06:43:47;;;;;;;18.70;11.70;;;;;;;;;;2610926;54;20419;-72
2023/12/18 06:46:13;;;;;;;17.23;10.50;;;;;;;;;;2612524;47;20454;-72
2023/12/18 06:48:42;;;;;;;22.80;13.67;;;;;;;;;;2609554;54;20423;-71
2023/12/18 06:51:09;;;;;;;18.20;13.60;;;;;;;;;;2610959;39;20856;-72
2023/12/18 06:53:35;;;;;;;23.03;15.13;;;;;;;;;;2610955;54;20416;-71
2023/12/18 06:56:01;;;;;;;14.07;9.70;;;;;;;;;;2610836;54;20413;-72
2023/12/18 06:58:27;;;;;;;17.37;9.73;;;;;;;;;;2612930;47;20419;-83
2023/12/18 07:00:53;;;;;;;23.80;13.43;;;;;;;;;;2613421;54;20419;-84
2023/12/18 07:03:19;;;;;;;24.10;13.10;;;;;;;;;;2612571;54;20403;-82
2023/12/18 07:05:46;;;;;;;13.20;7.60;;;;;;;;;;2612070;54;20426;-81
2023/12/18 07:08:12;;;;;;;18.10;13.97;;;;;;;;;;2613374;54;21142;-85
2023/12/18 07:10:39;;;;;;;23.10;11.67;;;;;;;;;;2614231;31;20921;-84
2023/12/18 07:13:05;;;;;;;19.30;12.60;;;;;;;;;;2613035;54;20418;-84
2023/12/18 07:15:31;;;;;;;31.27;16.13;;;;;;;;;;2612665;54;20420;-83
2023/12/18 07:17:58;;;;;;;19.17;13.30;;;;;;;;;;2613388;39;20794;-82
2023/12/18 07:20:24;;;;;;;21.50;12.83;;;;;;;;;;2613162;54;20426;-84
2023/12/18 07:22:50;;;;;;;24.80;13.93;;;;;;;;;;2613859;54;21501;-84
2023/12/18 07:25:16;;;;;;;21.07;12.97;;;;;;;;;;2614651;54;20442;-85
2023/12/18 07:27:44;;;;;;;19.63;13.23;;;;;;;;;;2613623;54;20406;-84
2023/12/18 07:30:11;;;;;;;17.37;11.50;;;;;;;;;;2613667;54;20411;-84
2023/12/18 07:32:37;;;;;;;21.67;11.77;;;;;;;;;;2612745;54;20780;-82
2023/12/18 07:35:04;;;;;;;24.33;13.47;;;;;;;;;;2613686;47;20453;-83
2023/12/18 07:37:30;;;;;;;22.00;12.83;;;;;;;;;;2613194;54;20416;-83
2023/12/18 07:39:57;;;;;;;19.10;12.43;;;;;;;;;;2613104;54;20461;-83
2023/12/18 07:42:23;;;;;;;22.37;13.23;;;;;;;;;;2612879;54;20408;-83
2023/12/18 07:44:49;;;;;;;23.70;15.00;;;;;;;;;;2614594;39;20957;-83
2023/12/18 07:47:15;;;;;;;20.50;12.20;;;;;;;;;;2611691;54;20506;-83
2023/12/18 07:49:42;;;;;;;13.80;9.60;;;;;;;;;;2614186;54;20431;-82
2023/12/18 07:52:08;;;;;;;21.27;14.10;;;;;;;;;;2612878;54;20467;-83
2023/12/18 07:54:34;;;;;;;24.40;13.87;;;;;;;;;;2613856;54;20419;-82
2023/12/18 07:57:04;;;;;;;16.80;10.03;;;;;;;;;;2611207;47;20469;-83
2023/12/18 07:59:30;;;;;;;20.80;12.30;;;;;;;;;;2614017;54;20407;-82
2023/12/18 08:01:56;;;;;;;17.07;12.20;;;;;;;;;;2613544;54;20436;-84
2023/12/18 08:04:22;;;;;;;23.10;11.23;;;;;;;;;;2612422;54;20435;-83
2023/12/18 08:06:51;;;;;;;23.50;13.43;;;;;;;;;;2613515;54;20434;-71
2023/12/18 08:09:17;;;;;;;19.80;13.00;;;;;;;;;;2611807;47;20436;-71
2023/12/18 08:11:43;;;;;;;19.73;10.63;;;;;;;;;;2611302;47;20457;-71
2023/12/18 08:14:09;;;;;;;19.57;12.87;;;;;;;;;;2611230;54;20980;-71
2023/12/18 08:16:35;;;;;;;19.00;11.23;;;;;;;;;;2611101;54;20802;-71
2023/12/18 08:19:01;;;;;;;17.03;10.33;;;;;;;;;;2609447;46;20474;-70
2023/12/18 08:21:27;;;;;;;25.53;11.80;;;;;;;;;;2611362;46;20443;-70
2023/12/18 08:23:53;;;;;;;24.00;12.80;;;;;;;;;;2611203;54;20444;-71
2023/12/18 08:26:19;;;;;;;25.10;15.00;;;;;;;;;;2611927;47;20450;-72
2023/12/18 08:28:45;;;;;;;9.60;7.77;;;;;;;;;;2609920;54;21381;-72
2023/12/18 08:31:12;;;;;;;24.03;12.97;;;;;;;;;;2611174;54;20419;-72
2023/12/18 08:33:41;;;;;;;20.77;13.53;;;;;;;;;;2610979;54;20428;-72
2023/12/18 08:36:08;;;;;;;21.13;14.10;;;;;;;;;;2611007;54;21039;-70
2023/12/18 08:38:34;;;;;;;13.23;9.17;;;;;;;;;;2610639;39;20790;-71
2023/12/18 08:41:00;;;;;;;24.13;13.60;;;;;;;;;;2611804;54;20419;-71
2023/12/18 08:43:26;;;;;;;20.00;11.50;;;;;;;;;;2611684;54;20400;-71
2023/12/18 08:45:52;;;;;;;18.63;11.23;;;;;;;;;;2611653;54;20420;-72
2023/12/18 08:48:18;;;;;;;18.70;12.00;;;;;;;;;;2611006;54;20938;-72
2023/12/18 08:50:44;;;;;;;20.40;15.13;;;;;;;;;;2610952;47;20419;-72
2023/12/18 08:53:10;;;;;;;17.20;11.13;;;;;;;;;;2612283;54;20462;-72
2023/12/18 08:55:39;;;;;;;26.37;13.30;;;;;;;;;;2611056;54;20438;-71
2023/12/18 08:58:08;;;;;;;22.03;13.80;;;;;;;;;;2610818;54;21364;-72
2023/12/18 09:00:34;;;;;;;21.23;14.17;;;;;;;;;;2611924;54;20400;-73
2023/12/18 09:03:00;;;;;;;18.90;13.30;;;;;;;;;;2608940;54;20437;-73
2023/12/18 09:05:26;;;;;;;23.23;13.27;;;;;;;;;;2611276;54;20411;-73
2023/12/18 09:07:52;;;;;;;11.30;9.10;;;;;;;;;;2611568;54;20962;-73
2023/12/18 09:10:22;;;;;;;25.20;13.80;;;;;;;;;;2611752;39;20924;-73
2023/12/18 09:12:48;;;;;;;25.07;13.60;;;;;;;;;;2611400;54;20494;-72
2023/12/18 09:15:14;;;;;;;20.07;12.70;;;;;;;;;;2612716;54;20379;-72
2023/12/18 09:17:40;;;;;;;17.87;12.73;;;;;;;;;;2611319;46;20463;-74
2023/12/18 09:20:06;;;;;;;24.90;15.80;;;;;;;;;;2611503;54;21033;-74
2023/12/18 09:22:33;;;;;;;24.50;13.33;;;;;;;;;;2611078;47;20499;-75
2023/12/18 09:24:59;;;;;;;22.43;15.77;;;;;;;;;;2613117;54;21011;-75
2023/12/18 09:27:25;;;;;;;21.40;14.13;;;;;;;;;;2611404;54;20400;-75
2023/12/18 09:29:51;;;;;;;18.20;11.67;;;;;;;;;;2611146;54;20431;-75
2023/12/18 09:32:17;;;;;;;24.30;15.07;;;;;;;;;;2612443;54;20417;-75
2023/12/18 09:34:43;;;;;;;19.20;13.40;;;;;;;;;;2611668;47;20423;-73
2023/12/18 09:37:09;;;;;;;22.47;11.63;;;;;;;;;;2611206;54;20530;-75
2023/12/18 09:39:35;;;;;;;24.87;13.80;;;;;;;;;;2611308;54;20408;-75
2023/12/18 09:42:02;;;;;;;20.13;14.50;;;;;;;;;;2611618;39;20519;-76
2023/12/18 09:44:30;;;;;;;23.23;14.70;;;;;;;;;;2611998;54;20974;-74
2023/12/18 09:46:57;;;;;;;23.33;12.00;;;;;;;;;;2610612;39;21005;-74
2023/12/18 09:49:23;;;;;;;18.37;13.90;;;;;;;;;;2612204;46;20427;-75
2023/12/18 09:51:51;;;;;;;22.50;14.10;;;;;;;;;;2610373;54;20412;-75
2023/12/18 09:54:17;;;;;;;20.23;12.40;;;;;;;;;;2611337;39;20486;-74
2023/12/18 09:56:44;;;;;;;22.33;14.80;;;;;;;;;;2611384;54;20412;-77
2023/12/18 09:59:10;;;;;;;30.03;15.20;;;;;;;;;;2611640;54;20415;-75
2023/12/18 10:01:38;;;;;;;20.10;13.83;;;;;;;;;;2611003;39;20858;-75
2023/12/18 10:04:04;;;;;;;15.47;10.93;;;;;;;;;;2610220;46;20420;-75
2023/12/18 10:06:30;;;;;;;24.63;15.17;;;;;;;;;;2611894;54;20420;-76
2023/12/18 10:08:57;;;;;;;21.83;16.37;;;;;;;;;;2612594;54;20405;-76
2023/12/18 10:11:26;;;;;;;22.87;10.63;;;;;;;;;;2613071;54;20433;-75
2023/12/18 10:13:55;;;;;;;20.33;14.00;;;;;;;;;;2613433;54;20422;-75
2023/12/18 10:16:22;;;;;;;23.03;15.67;;;;;;;;;;2613621;54;20992;-75
2023/12/18 10:18:48;;;;;;;22.63;14.37;;;;;;;;;;2611874;47;20456;-75
2023/12/18 10:21:21;;;;;;;19.57;11.27;;;;;;;;;;2611979;54;20418;-75
2023/12/18 10:23:47;;;;;;;18.37;12.60;;;;;;;;;;2613161;39;20851;-75
2023/12/18 10:26:13;;;;;;;23.07;14.30;;;;;;;;;;2609881;54;20977;-76
2023/12/18 10:28:39;;;;;;;21.83;11.20;;;;;;;;;;2612664;54;20443;-71
2023/12/18 10:31:08;;;;;;;20.43;14.03;;;;;;;;;;2610161;47;20423;-70
2023/12/18 10:33:34;;;;;;;19.70;10.07;;;;;;;;;;2611682;54;20482;-70
2023/12/18 10:36:01;;;;;;;25.77;14.70;;;;;;;;;;2611242;54;20427;-70
2023/12/18 10:38:30;;;;;;;20.13;13.40;;;;;;;;;;2612428;39;20801;-73
2023/12/18 10:40:59;;;;;;;23.57;14.27;;;;;;;;;;2611170;54;20431;-71
2023/12/18 10:43:26;;;;;;;17.97;11.70;;;;;;;;;;2610861;54;20419;-71
2023/12/18 10:45:53;;;;;;;16.70;11.00;;;;;;;;;;2610930;54;20419;-70
2023/12/18 10:48:19;;;;;;;22.30;13.43;;;;;;;;;;2612215;54;20419;-71
2023/12/18 10:50:48;;;;;;;25.40;13.47;;;;;;;;;;2612191;39;20558;-71
2023/12/18 10:53:17;;;;;;;20.80;14.30;;;;;;;;;;2609451;54;20455;-72
2023/12/18 10:55:43;;;;;;;19.80;13.80;;;;;;;;;;2611042;54;20534;-70
2023/12/18 10:58:11;;;;;;;18.27;10.97;;;;;;;;;;2610955;54;20435;-72
2023/12/18 11:00:38;;;;;;;23.23;14.30;;;;;;;;;;2610680;54;20496;-72
2023/12/18 11:03:05;;;;;;;20.30;14.53;;;;;;;;;;2611079;54;21410;-72
2023/12/18 11:05:32;;;;;;;17.53;12.50;;;;;;;;;;2611528;54;20416;-72
2023/12/18 11:07:58;;;;;;;19.00;14.00;;;;;;;;;;2612076;39;20477;-78
2023/12/18 11:10:27;;;;;;;22.93;14.20;;;;;;;;;;2611998;54;20423;-77
2023/12/18 11:13:00;;;;;;;20.80;13.13;;;;;;;;;;2611034;54;20415;-77
2023/12/18 11:15:26;;;;;;;21.50;12.20;;;;;;;;;;2613064;54;20432;-77
2023/12/18 11:17:58;;;;;;;28.20;15.53;;;;;;;;;;2612259;54;20474;-77
2023/12/18 11:20:31;;;;;;;15.33;11.90;;;;;;;;;;2611298;54;20432;-77
2023/12/18 11:22:57;;;;;;;18.40;13.87;;;;;;;;;;2612384;46;20428;-77
2023/12/18 11:25:46;;;;;;;12.80;10.87;;;;;;;;;;2611438;54;20507;-78
2023/12/18 11:28:12;;;;;;;20.57;14.43;;;;;;;;;;2610147;54;20689;-77
2023/12/18 11:30:42;;;;;;;20.57;12.20;;;;;;;;;;2610965;47;21071;-76
2023/12/18 11:33:10;;;;;;;27.03;14.90;;;;;;;;;;2611690;39;20649;-76
2023/12/18 11:35:36;;;;;;;21.67;13.20;;;;;;;;;;2611648;54;20412;-78
2023/12/18 11:38:09;;;;;;;22.13;17.30;;;;;;;;;;2611540;54;20511;-70
2023/12/18 11:40:44;;;;;;;18.47;10.37;;;;;;;;;;2611847;54;20536;-72
2023/12/18 11:43:12;;;;;;;17.70;12.17;;;;;;;;;;2611462;54;20431;-71
2023/12/18 11:45:44;;;;;;;17.13;10.40;;;;;;;;;;2610897;54;20416;-73
2023/12/18 11:48:16;;;;;;;18.87;13.97;;;;;;;;;;2610230;54;20440;-73
2023/12/18 11:50:42;;;;;;;17.50;10.80;;;;;;;;;;2611918;47;20461;-72
2023/12/18 11:53:08;;;;;;;20.47;12.50;;;;;;;;;;2610421;47;20550;-72
2023/12/18 11:55:38;;;;;;;15.33;12.03;;;;;;;;;;2611527;47;20447;-72
2023/12/18 11:58:04;;;;;;;12.63;8.70;;;;;;;;;;2610799;47;20437;-71
2023/12/18 12:00:31;;;;;;;18.70;12.90;;;;;;;;;;2609537;54;20471;-72
2023/12/18 12:02:58;;;;;;;14.80;8.97;;;;;;;;;;2611216;47;20447;-72
2023/12/18 12:05:27;;;;;;;18.57;10.93;;;;;;;;;;2610912;54;20416;-72
2023/12/18 12:07:53;;;;;;;19.10;12.40;;;;;;;;;;2612132;46;20473;-73
2023/12/18 12:10:20;;;;;;;17.53;11.60;;;;;;;;;;2609644;47;20440;-72
2023/12/18 12:12:52;;;;;;;14.03;10.40;;;;;;;;;;2610446;54;20987;-72
2023/12/18 12:15:18;;;;;;;19.03;11.67;;;;;;;;;;2611774;54;20455;-72
2023/12/18 12:17:44;;;;;;;9.77;6.30;;;;;;;;;;2611981;47;21128;-78
2023/12/18 12:20:10;;;;;;;16.90;10.90;;;;;;;;;;2611436;54;20427;-80
2023/12/18 12:22:37;;;;;;;15.17;10.57;;;;;;;;;;2612260;54;20438;-81
2023/12/18 12:25:04;;;;;;;16.70;9.97;;;;;;;;;;2612229;47;20427;-79
2023/12/18 12:27:30;;;;;;;16.60;9.90;;;;;;;;;;2612384;54;20560;-80
2023/12/18 12:29:56;;;;;;;23.13;10.97;;;;;;;;;;2612792;47;20466;-80
2023/12/18 12:32:22;;;;;;;14.13;9.20;;;;;;;;;;2611725;54;20469;-80
2023/12/18 12:34:48;;;;;;;18.20;11.00;;;;;;;;;;2612514;54;20457;-80
2023/12/18 12:37:14;;;;;;;18.30;10.60;;;;;;;;;;2612039;54;20412;-80
2023/12/18 12:39:58;;;;;;;17.80;11.40;;;;;;;;;;2612210;47;20463;-79
2023/12/18 12:42:25;;;;;;;16.97;12.10;;;;;;;;;;2611073;54;20404;-80
2023/12/18 12:44:51;;;;;;;13.53;9.03;;;;;;;;;;2611691;39;20704;-79
2023/12/18 12:47:17;;;;;;;16.10;12.10;;;;;;;;;;2610801;54;20413;-72
2023/12/18 12:49:47;;;;;;;13.33;10.10;;;;;;;;;;2608508;54;21170;-71
2023/12/18 12:52:16;;;;;;;16.47;9.40;;;;;;;;;;2611107;47;20439;-71
2023/12/18 12:54:45;;;;;;;17.33;11.43;;;;;;;;;;2611857;54;20523;-71
2023/12/18 12:57:14;;;;;;;15.27;9.50;;;;;;;;;;2611937;31;20850;-71
2023/12/18 12:59:53;;;;;;;14.10;10.80;;;;;;;;;;2610923;54;20423;-72
2023/12/18 13:02:22;;;;;;;23.10;10.60;;;;;;;;;;2610374;39;20974;-72
2023/12/18 13:04:49;;;;;;;17.53;9.80;;;;;;;;;;2609361;54;20397;-72
2023/12/18 13:07:16;;;;;;;15.73;7.90;;;;;;;;;;2610611;46;20458;-71
2023/12/18 13:09:42;;;;;;;12.07;6.37;;;;;;;;;;2611237;31;20998;-71
2023/12/18 13:12:08;;;;;;;17.27;9.33;;;;;;;;;;2611552;54;20499;-72
2023/12/18 13:14:35;;;;;;;14.67;10.67;;;;;;;;;;2611480;54;20428;-72
2023/12/18 13:17:03;;;;;;;12.33;9.57;;;;;;;;;;2610573;54;20463;-70
2023/12/18 13:19:29;;;;;;;15.07;9.70;;;;;;;;;;2611977;54;20400;-70
2023/12/18 13:21:55;;;;;;;14.10;10.17;;;;;;;;;;2610988;47;20428;-72
2023/12/18 13:24:21;;;;;;;12.20;9.30;;;;;;;;;;2611291;54;20408;-71
2023/12/18 13:26:47;;;;;;;13.70;10.53;;;;;;;;;;2611129;54;21058;-82
2023/12/18 13:29:13;;;;;;;13.30;9.30;;;;;;;;;;2614505;47;20429;-85
2023/12/18 13:31:39;;;;;;;9.83;6.80;;;;;;;;;;2615831;39;20847;-85
2023/12/18 13:34:05;;;;;;;14.20;9.30;;;;;;;;;;2613514;54;20441;-85
2023/12/18 13:36:32;;;;;;;11.47;8.13;;;;;;;;;;2613861;54;20412;-83
2023/12/18 13:38:58;;;;;;;11.90;8.17;;;;;;;;;;2614104;54;20442;-86
2023/12/18 13:41:33;;;;;;;13.40;8.37;;;;;;;;;;2614274;39;20758;-84
2023/12/18 13:44:00;;;;;;;11.93;8.27;;;;;;;;;;2616181;54;20402;-84
2023/12/18 13:46:26;;;;;;;11.83;8.97;;;;;;;;;;2614831;47;20407;-84
2023/12/18 13:48:52;;;;;;;12.03;9.43;;;;;;;;;;2614168;54;20434;-84
2023/12/18 13:51:18;;;;;;;11.80;8.27;;;;;;;;;;2614080;54;20428;-82
2023/12/18 13:53:44;;;;;;;13.37;8.43;;;;;;;;;;2613496;47;20446;-80
2023/12/18 13:56:11;;;;;;;13.23;7.40;;;;;;;;;;2613799;54;20418;-83
2023/12/18 13:58:37;;;;;;;11.23;6.70;;;;;;;;;;2612394;54;20441;-72
2023/12/18 14:01:03;;;;;;;10.70;7.10;;;;;;;;;;2611344;54;20431;-71
2023/12/18 14:03:30;;;;;;;12.60;8.70;;;;;;;;;;2610654;47;20435;-71
2023/12/18 14:05:56;;;;;;;16.83;9.03;;;;;;;;;;2611868;39;20817;-71
2023/12/18 14:08:22;;;;;;;13.33;8.50;;;;;;;;;;2612221;47;20436;-71
2023/12/18 14:10:50;;;;;;;8.00;7.03;;;;;;;;;;2611972;54;20414;-72
2023/12/18 14:13:16;;;;;;;8.60;6.90;;;;;;;;;;2611973;54;20395;-72
2023/12/18 14:15:42;;;;;;;9.90;7.63;;;;;;;;;;2612337;54;20420;-72
2023/12/18 14:18:08;;;;;;;13.57;8.73;;;;;;;;;;2610308;54;20486;-72
2023/12/18 14:20:36;;;;;;;13.57;7.50;;;;;;;;;;2610071;46;20482;-71